sensor_id;sensor_type;location;lat;lon;timestamp;pressure;altitude;pressure_sealevel;temperature;humidity
74544;BME280;63016;55.030;38.710;2022-12-20T00:00:41;101208.56;;;-0.30;68.56
74544;BME280;63016;55.030;38.710;2022-12-20T00:03:07;101223.13;;;-0.30;68.84
74544;BME280;63016;55.030;38.710;2022-12-20T00:05:35;101228.31;;;-0.32;68.08
74544;BME280;63016;55.030;38.710;2022-12-20T00:08:00;101223.28;;;-0.33;68.73
74544;BME280;63016;55.030;38.710;2022-12-20T00:10:26;101220.00;;;-0.37;68.15
74544;BME280;63016;55.030;38.710;2022-12-20T00:13:00;101206.34;;;-0.37;68.62
74544;BME280;63016;55.030;38.710;2022-12-20T00:15:26;101195.25;;;-0.38;67.94
74544;BME280;63016;55.030;38.710;2022-12-20T00:17:51;101215.75;;;-0.38;68.28
74544;BME280;63016;55.030;38.710;2022-12-20T00:20:16;101219.16;;;-0.37;68.61
74544;BME280;63016;55.030;38.710;2022-12-20T00:22:42;101219.16;;;-0.37;68.19
74544;BME280;63016;55.030;38.710;2022-12-20T00:25:07;101217.34;;;-0.35;68.37
74544;BME280;63016;55.030;38.710;2022-12-20T00:27:35;101209.72;;;-0.37;68.67
74544;BME280;63016;55.030;38.710;2022-12-20T00:30:01;101200.38;;;-0.38;68.23
74544;BME280;63016;55.030;38.710;2022-12-20T00:32:26;101180.75;;;-0.39;68.91
74544;BME280;63016;55.030;38.710;2022-12-20T00:34:51;101173.91;;;-0.38;68.64
74544;BME280;63016;55.030;38.710;2022-12-20T00:37:17;101164.47;;;-0.38;68.47
74544;BME280;63016;55.030;38.710;2022-12-20T00:39:42;101161.00;;;-0.37;68.22
74544;BME280;63016;55.030;38.710;2022-12-20T00:42:07;101170.44;;;-0.37;68.65
74544;BME280;63016;55.030;38.710;2022-12-20T00:44:33;101175.56;;;-0.37;68.67
74544;BME280;63016;55.030;38.710;2022-12-20T00:46:58;101191.78;;;-0.37;68.96
74544;BME280;63016;55.030;38.710;2022-12-20T00:49:23;101184.84;;;-0.35;68.70
74544;BME280;63016;55.030;38.710;2022-12-20T00:51:49;101172.03;;;-0.35;68.76
74544;BME280;63016;55.030;38.710;2022-12-20T00:54:14;101173.75;;;-0.35;68.37
74544;BME280;63016;55.030;38.710;2022-12-20T00:56:39;101167.72;;;-0.34;68.78
74544;BME280;63016;55.030;38.710;2022-12-20T00:59:05;101172.94;;;-0.36;68.73
74544;BME280;63016;55.030;38.710;2022-12-20T01:01:31;101180.63;;;-0.36;68.06
74544;BME280;63016;55.030;38.710;2022-12-20T01:03:58;101168.59;;;-0.34;68.07
74544;BME280;63016;55.030;38.710;2022-12-20T01:06:24;101179.69;;;-0.33;68.51
74544;BME280;63016;55.030;38.710;2022-12-20T01:08:50;101170.25;;;-0.33;68.30
74544;BME280;63016;55.030;38.710;2022-12-20T01:11:16;101175.38;;;-0.33;68.85
74544;BME280;63016;55.030;38.710;2022-12-20T01:13:43;101167.69;;;-0.33;68.41
74544;BME280;63016;55.030;38.710;2022-12-20T01:16:11;101176.13;;;-0.31;68.72
74544;BME280;63016;55.030;38.710;2022-12-20T01:18:37;101178.63;;;-0.29;68.07
74544;BME280;63016;55.030;38.710;2022-12-20T01:21:03;101171.84;;;-0.30;68.47
74544;BME280;63016;55.030;38.710;2022-12-20T01:23:30;101172.66;;;-0.30;68.79
74544;BME280;63016;55.030;38.710;2022-12-20T01:26:05;101161.53;;;-0.29;68.38
74544;BME280;63016;55.030;38.710;2022-12-20T01:28:33;101143.59;;;-0.29;68.17
74544;BME280;63016;55.030;38.710;2022-12-20T01:30:58;101141.78;;;-0.27;68.25
74544;BME280;63016;55.030;38.710;2022-12-20T01:33:24;101151.19;;;-0.27;68.00
74544;BME280;63016;55.030;38.710;2022-12-20T01:35:59;101145.25;;;-0.28;68.60
74544;BME280;63016;55.030;38.710;2022-12-20T01:38:25;101140.94;;;-0.27;68.78
74544;BME280;63016;55.030;38.710;2022-12-20T01:40:50;101139.22;;;-0.27;68.82
74544;BME280;63016;55.030;38.710;2022-12-20T01:43:16;101141.78;;;-0.27;68.49
74544;BME280;63016;55.030;38.710;2022-12-20T01:45:42;101140.88;;;-0.26;67.94
74544;BME280;63016;55.030;38.710;2022-12-20T01:48:08;101125.56;;;-0.27;68.27
74544;BME280;63016;55.030;38.710;2022-12-20T01:50:34;101124.75;;;-0.29;68.62
74544;BME280;63016;55.030;38.710;2022-12-20T01:52:59;101134.28;;;-0.31;68.54
74544;BME280;63016;55.030;38.710;2022-12-20T01:55:28;101136.91;;;-0.33;68.10
74544;BME280;63016;55.030;38.710;2022-12-20T02:00:19;101125.13;;;-0.37;68.66
74544;BME280;63016;55.030;38.710;2022-12-20T02:02:45;101105.50;;;-0.38;68.66
74544;BME280;63016;55.030;38.710;2022-12-20T02:05:11;101078.16;;;-0.39;68.01
74544;BME280;63016;55.030;38.710;2022-12-20T02:07:38;101075.56;;;-0.37;68.64
74544;BME280;63016;55.030;38.710;2022-12-20T02:10:06;101094.34;;;-0.37;67.95
74544;BME280;63016;55.030;38.710;2022-12-20T02:12:51;101104.59;;;-0.37;68.51
74544;BME280;63016;55.030;38.710;2022-12-20T02:15:31;101108.94;;;-0.39;68.51
74544;BME280;63016;55.030;38.710;2022-12-20T02:28:40;101110.81;;;-0.42;68.05
74544;BME280;63016;55.030;38.710;2022-12-20T02:31:12;101104.88;;;-0.43;68.76
74544;BME280;63016;55.030;38.710;2022-12-20T02:33:41;101121.09;;;-0.42;68.57
74544;BME280;63016;55.030;38.710;2022-12-20T02:36:09;101127.88;;;-0.41;68.50
74544;BME280;63016;55.030;38.710;2022-12-20T02:38:35;101122.66;;;-0.40;68.16
74544;BME280;63016;55.030;38.710;2022-12-20T02:41:13;101110.69;;;-0.39;68.09
74544;BME280;63016;55.030;38.710;2022-12-20T02:43:41;101110.63;;;-0.38;68.72
74544;BME280;63016;55.030;38.710;2022-12-20T02:46:26;101109.72;;;-0.37;68.76
74544;BME280;63016;55.030;38.710;2022-12-20T02:48:52;101105.50;;;-0.38;67.86
74544;BME280;63016;55.030;38.710;2022-12-20T02:51:20;101105.50;;;-0.38;68.49
74544;BME280;63016;55.030;38.710;2022-12-20T02:53:47;101097.81;;;-0.38;67.95
74544;BME280;63016;55.030;38.710;2022-12-20T02:56:26;101109.81;;;-0.38;67.81
74544;BME280;63016;55.030;38.710;2022-12-20T02:59:04;101094.47;;;-0.40;67.79
74544;BME280;63016;55.030;38.710;2022-12-20T03:01:32;101101.31;;;-0.40;68.12
74544;BME280;63016;55.030;38.710;2022-12-20T03:04:00;101091.06;;;-0.40;68.16
74544;BME280;63016;55.030;38.710;2022-12-20T03:06:26;101088.50;;;-0.40;68.12
74544;BME280;63016;55.030;38.710;2022-12-20T03:08:54;101098.75;;;-0.40;68.11
74544;BME280;63016;55.030;38.710;2022-12-20T03:11:20;101095.38;;;-0.41;68.32
74544;BME280;63016;55.030;38.710;2022-12-20T03:13:45;101091.97;;;-0.41;67.83
74544;BME280;63016;55.030;38.710;2022-12-20T03:16:11;101092.06;;;-0.43;68.59
74544;BME280;63016;55.030;38.710;2022-12-20T03:18:36;101077.53;;;-0.44;67.66
74544;BME280;63016;55.030;38.710;2022-12-20T03:21:02;101087.03;;;-0.46;68.04
74544;BME280;63016;55.030;38.710;2022-12-20T03:23:27;101088.84;;;-0.48;68.03
74544;BME280;63016;55.030;38.710;2022-12-20T03:25:53;101092.28;;;-0.49;68.05
74544;BME280;63016;55.030;38.710;2022-12-20T03:28:18;101085.56;;;-0.52;68.33
74544;BME280;63016;55.030;38.710;2022-12-20T03:30:44;101080.53;;;-0.53;68.18
74544;BME280;63016;55.030;38.710;2022-12-20T03:33:10;101074.63;;;-0.55;68.13
74544;BME280;63016;55.030;38.710;2022-12-20T03:35:35;101070.41;;;-0.56;68.27
74544;BME280;63016;55.030;38.710;2022-12-20T03:38:00;101068.72;;;-0.57;67.98
74544;BME280;63016;55.030;38.710;2022-12-20T03:40:26;101061.91;;;-0.58;68.40
74544;BME280;63016;55.030;38.710;2022-12-20T03:42:51;101058.53;;;-0.59;68.24
74544;BME280;63016;55.030;38.710;2022-12-20T03:45:17;101046.69;;;-0.61;67.67
74544;BME280;63016;55.030;38.710;2022-12-20T03:47:42;101038.16;;;-0.62;67.86
74544;BME280;63016;55.030;38.710;2022-12-20T03:50:17;101040.78;;;-0.63;67.51
74544;BME280;63016;55.030;38.710;2022-12-20T03:52:42;101035.81;;;-0.66;67.63
74544;BME280;63016;55.030;38.710;2022-12-20T03:55:07;101033.28;;;-0.68;67.93
74544;BME280;63016;55.030;38.710;2022-12-20T03:57:33;101035.94;;;-0.69;68.04
74544;BME280;63016;55.030;38.710;2022-12-20T03:59:59;101035.09;;;-0.70;67.69
74544;BME280;63016;55.030;38.710;2022-12-20T04:02:24;101029.97;;;-0.70;67.52
74544;BME280;63016;55.030;38.710;2022-12-20T04:04:50;101025.81;;;-0.72;67.64
74544;BME280;63016;55.030;38.710;2022-12-20T04:07:15;101022.47;;;-0.74;67.45
74544;BME280;63016;55.030;38.710;2022-12-20T04:09:42;101032.81;;;-0.76;67.59
74544;BME280;63016;55.030;38.710;2022-12-20T04:12:07;101026.88;;;-0.78;67.41
74544;BME280;63016;55.030;38.710;2022-12-20T04:14:32;101023.56;;;-0.80;67.71
74544;BME280;63016;55.030;38.710;2022-12-20T04:16:58;101027.16;;;-0.84;67.75
74544;BME280;63016;55.030;38.710;2022-12-20T04:19:23;101026.41;;;-0.86;67.18
74544;BME280;63016;55.030;38.710;2022-12-20T04:21:48;101012.97;;;-0.91;67.14
74544;BME280;63016;55.030;38.710;2022-12-20T04:24:14;101016.47;;;-0.94;67.00
74544;BME280;63016;55.030;38.710;2022-12-20T04:26:39;101014.03;;;-0.97;67.78
74544;BME280;63016;55.030;38.710;2022-12-20T04:29:04;101017.56;;;-0.99;67.26
74544;BME280;63016;55.030;38.710;2022-12-20T04:31:30;101016.84;;;-1.03;67.88
74544;BME280;63016;55.030;38.710;2022-12-20T04:33:55;101000.78;;;-1.07;67.19
74544;BME280;63016;55.030;38.710;2022-12-20T04:36:21;100993.25;;;-1.10;68.14
74544;BME280;63016;55.030;38.710;2022-12-20T04:38:46;100997.53;;;-1.10;67.51
74544;BME280;63016;55.030;38.710;2022-12-20T04:41:11;100992.53;;;-1.13;67.51
74544;BME280;63016;55.030;38.710;2022-12-20T04:43:47;100991.78;;;-1.15;67.22
74544;BME280;63016;55.030;38.710;2022-12-20T04:46:13;100981.63;;;-1.18;67.50
74544;BME280;63016;55.030;38.710;2022-12-20T04:48:38;100976.59;;;-1.20;67.25
74544;BME280;63016;55.030;38.710;2022-12-20T04:51:04;100980.94;;;-1.22;68.05
74544;BME280;63016;55.030;38.710;2022-12-20T04:53:30;100977.59;;;-1.24;67.70
74544;BME280;63016;55.030;38.710;2022-12-20T04:56:20;100976.91;;;-1.27;67.25
74544;BME280;63016;55.030;38.710;2022-12-20T04:58:50;100977.03;;;-1.31;67.85
74544;BME280;63016;55.030;38.710;2022-12-20T05:01:16;100984.75;;;-1.32;67.73
74544;BME280;63016;55.030;38.710;2022-12-20T05:03:42;100995.16;;;-1.35;67.53
74544;BME280;63016;55.030;38.710;2022-12-20T05:06:08;100991.81;;;-1.37;67.32
74544;BME280;63016;55.030;38.710;2022-12-20T05:08:34;100992.78;;;-1.40;67.87
74544;BME280;63016;55.030;38.710;2022-12-20T05:10:59;100992.88;;;-1.43;67.72
74544;BME280;63016;55.030;38.710;2022-12-20T05:13:24;100997.19;;;-1.43;67.85
74544;BME280;63016;55.030;38.710;2022-12-20T05:15:50;100992.16;;;-1.46;67.21
74544;BME280;63016;55.030;38.710;2022-12-20T05:18:16;100989.75;;;-1.49;67.86
74544;BME280;63016;55.030;38.710;2022-12-20T05:20:41;100981.28;;;-1.51;67.25
74544;BME280;63016;55.030;38.710;2022-12-20T05:23:07;100978.00;;;-1.55;67.74
74544;BME280;63016;55.030;38.710;2022-12-20T05:26:04;100976.34;;;-1.56;67.24
74544;BME280;63016;55.030;38.710;2022-12-20T05:28:48;100975.63;;;-1.60;67.88
74544;BME280;63016;55.030;38.710;2022-12-20T05:31:14;100971.50;;;-1.62;67.15
74544;BME280;63016;55.030;38.710;2022-12-20T05:33:48;100964.72;;;-1.63;67.83
74544;BME280;63016;55.030;38.710;2022-12-20T05:36:13;100963.94;;;-1.65;67.71
74544;BME280;63016;55.030;38.710;2022-12-20T05:38:39;100964.91;;;-1.68;67.52
74544;BME280;63016;55.030;38.710;2022-12-20T05:41:04;100967.50;;;-1.69;67.25
74544;BME280;63016;55.030;38.710;2022-12-20T05:43:30;100962.44;;;-1.71;67.78
74544;BME280;63016;55.030;38.710;2022-12-20T05:45:56;100959.97;;;-1.72;67.04
74544;BME280;63016;55.030;38.710;2022-12-20T05:48:21;100965.06;;;-1.72;67.67
74544;BME280;63016;55.030;38.710;2022-12-20T05:50:47;100965.16;;;-1.74;67.79
74544;BME280;63016;55.030;38.710;2022-12-20T05:53:13;100971.97;;;-1.74;67.25
74544;BME280;63016;55.030;38.710;2022-12-20T05:55:47;100968.56;;;-1.75;67.38
74544;BME280;63016;55.030;38.710;2022-12-20T05:58:12;100964.28;;;-1.74;67.86
74544;BME280;63016;55.030;38.710;2022-12-20T06:00:41;100965.19;;;-1.75;67.47
74544;BME280;63016;55.030;38.710;2022-12-20T06:03:07;100950.75;;;-1.76;67.53
74544;BME280;63016;55.030;38.710;2022-12-20T06:05:35;100950.75;;;-1.76;67.73
74544;BME280;63016;55.030;38.710;2022-12-20T06:08:00;100946.53;;;-1.77;67.63
74544;BME280;63016;55.030;38.710;2022-12-20T06:10:26;100938.88;;;-1.79;67.39
74544;BME280;63016;55.030;38.710;2022-12-20T06:12:51;100930.38;;;-1.79;67.46
74544;BME280;63016;55.030;38.710;2022-12-20T06:15:16;100930.44;;;-1.81;67.73
74544;BME280;63016;55.030;38.710;2022-12-20T06:17:42;100929.63;;;-1.82;67.20
74544;BME280;63016;55.030;38.710;2022-12-20T06:20:07;100929.69;;;-1.83;67.51
74544;BME280;63016;55.030;38.710;2022-12-20T06:22:33;100922.97;;;-1.86;67.75
74544;BME280;63016;55.030;38.710;2022-12-20T06:24:59;100923.78;;;-1.85;67.91
74544;BME280;63016;55.030;38.710;2022-12-20T06:27:24;100922.22;;;-1.88;67.88
74544;BME280;63016;55.030;38.710;2022-12-20T06:29:49;100918.84;;;-1.90;67.31
74544;BME280;63016;55.030;38.710;2022-12-20T06:32:18;100920.59;;;-1.90;67.33
74544;BME280;63016;55.030;38.710;2022-12-20T06:34:43;100917.19;;;-1.91;67.11
74544;BME280;63016;55.030;38.710;2022-12-20T06:37:09;100915.63;;;-1.93;67.48
74544;BME280;63016;55.030;38.710;2022-12-20T06:39:34;100914.75;;;-1.94;67.36
74544;BME280;63016;55.030;38.710;2022-12-20T06:41:59;100911.38;;;-1.94;67.60
74544;BME280;63016;55.030;38.710;2022-12-20T06:44:24;100904.59;;;-1.95;67.55
74544;BME280;63016;55.030;38.710;2022-12-20T06:46:50;100901.22;;;-1.96;67.80
74544;BME280;63016;55.030;38.710;2022-12-20T06:49:15;100900.38;;;-1.96;67.51
74544;BME280;63016;55.030;38.710;2022-12-20T06:51:41;100903.00;;;-1.98;67.67
74544;BME280;63016;55.030;38.710;2022-12-20T06:54:06;100889.34;;;-1.98;67.48
74544;BME280;63016;55.030;38.710;2022-12-20T06:56:31;100887.69;;;-1.99;67.80
74544;BME280;63016;55.030;38.710;2022-12-20T06:58:56;100884.31;;;-2.00;67.90
74544;BME280;63016;55.030;38.710;2022-12-20T07:01:22;100885.22;;;-2.01;68.02
74544;BME280;63016;55.030;38.710;2022-12-20T07:03:59;100882.72;;;-2.02;67.85
74544;BME280;63016;55.030;38.710;2022-12-20T07:06:25;100888.72;;;-2.03;67.33
74544;BME280;63016;55.030;38.710;2022-12-20T07:08:51;100884.47;;;-2.03;67.97
74544;BME280;63016;55.030;38.710;2022-12-20T07:11:16;100880.16;;;-2.02;67.90
74544;BME280;63016;55.030;38.710;2022-12-20T07:13:42;100887.00;;;-2.03;68.01
74544;BME280;63016;55.030;38.710;2022-12-20T07:16:16;100887.78;;;-2.01;68.30
74544;BME280;63016;55.030;38.710;2022-12-20T07:18:51;100885.16;;;-1.99;68.06
74544;BME280;63016;55.030;38.710;2022-12-20T07:21:19;100876.53;;;-1.97;68.24
74544;BME280;63016;55.030;38.710;2022-12-20T07:23:50;100873.91;;;-1.95;68.08
74544;BME280;63016;55.030;38.710;2022-12-20T07:26:16;100867.06;;;-1.95;68.21
74544;BME280;63016;55.030;38.710;2022-12-20T07:28:41;100877.19;;;-1.92;67.78
74544;BME280;63016;55.030;38.710;2022-12-20T07:31:07;100879.66;;;-1.90;68.21
74544;BME280;63016;55.030;38.710;2022-12-20T07:33:32;100877.03;;;-1.89;67.81
74544;BME280;63016;55.030;38.710;2022-12-20T07:36:01;100872.78;;;-1.88;68.27
74544;BME280;63016;55.030;38.710;2022-12-20T07:38:27;100875.19;;;-1.85;68.47
74544;BME280;63016;55.030;38.710;2022-12-20T07:40:52;100861.47;;;-1.83;68.11
74544;BME280;63016;55.030;38.710;2022-12-20T07:43:18;100866.44;;;-1.79;67.93
74544;BME280;63016;55.030;38.710;2022-12-20T07:45:43;100856.97;;;-1.77;67.72
74544;BME280;63016;55.030;38.710;2022-12-20T07:48:15;100858.53;;;-1.73;68.06
74544;BME280;63016;55.030;38.710;2022-12-20T07:50:40;100848.16;;;-1.70;67.70
74544;BME280;63016;55.030;38.710;2022-12-20T07:53:05;100832.78;;;-1.70;68.24
74544;BME280;63016;55.030;38.710;2022-12-20T07:55:31;100834.34;;;-1.66;68.38
74544;BME280;63016;55.030;38.710;2022-12-20T07:58:00;100829.13;;;-1.65;68.38
74544;BME280;63016;55.030;38.710;2022-12-20T08:00:27;100818.78;;;-1.62;68.37
74544;BME280;63016;55.030;38.710;2022-12-20T08:03:00;100816.97;;;-1.60;68.39
74544;BME280;63016;55.030;38.710;2022-12-20T08:05:26;100810.00;;;-1.56;68.56
74544;BME280;63016;55.030;38.710;2022-12-20T08:07:53;100797.94;;;-1.52;68.15
74544;BME280;63016;55.030;38.710;2022-12-20T08:10:20;100787.63;;;-1.51;68.21
74544;BME280;63016;55.030;38.710;2022-12-20T08:12:45;100784.94;;;-1.48;68.75
74544;BME280;63016;55.030;38.710;2022-12-20T08:15:20;100773.72;;;-1.45;68.61
74544;BME280;63016;55.030;38.710;2022-12-20T08:17:47;100767.63;;;-1.43;68.58
74544;BME280;63016;55.030;38.710;2022-12-20T08:20:13;100764.97;;;-1.40;67.80
74544;BME280;63016;55.030;38.710;2022-12-20T08:22:38;100753.81;;;-1.39;67.83
74544;BME280;63016;55.030;38.710;2022-12-20T08:25:03;100746.88;;;-1.37;67.81
74544;BME280;63016;55.030;38.710;2022-12-20T08:27:29;100736.53;;;-1.34;68.11
74544;BME280;63016;55.030;38.710;2022-12-20T08:29:54;100735.53;;;-1.31;68.45
74544;BME280;63016;55.030;38.710;2022-12-20T08:32:20;100726.00;;;-1.27;68.52
74544;BME280;63016;55.030;38.710;2022-12-20T08:34:45;100732.63;;;-1.23;68.84
74544;BME280;63016;55.030;38.710;2022-12-20T08:37:14;100718.94;;;-1.22;68.30
74544;BME280;63016;55.030;38.710;2022-12-20T08:39:40;100714.50;;;-1.19;68.31
74544;BME280;63016;55.030;38.710;2022-12-20T08:42:05;100705.84;;;-1.16;68.23
74544;BME280;63016;55.030;38.710;2022-12-20T08:44:30;100702.31;;;-1.14;68.21
74544;BME280;63016;55.030;38.710;2022-12-20T08:46:56;100698.81;;;-1.11;68.86
74544;BME280;63016;55.030;38.710;2022-12-20T08:49:21;100692.69;;;-1.09;68.95
74544;BME280;63016;55.030;38.710;2022-12-20T08:51:47;100681.41;;;-1.05;68.06
74544;BME280;63016;55.030;38.710;2022-12-20T08:54:12;100678.75;;;-1.03;68.75
74544;BME280;63016;55.030;38.710;2022-12-20T08:56:37;100671.69;;;-0.98;68.78
74544;BME280;63016;55.030;38.710;2022-12-20T08:59:04;100659.66;;;-0.96;68.17
74544;BME280;63016;55.030;38.710;2022-12-20T09:01:29;100646.63;;;-0.91;68.29
74544;BME280;63016;55.030;38.710;2022-12-20T09:03:57;100654.16;;;-0.88;68.26
74544;BME280;63016;55.030;38.710;2022-12-20T09:06:23;100632.69;;;-0.86;68.07
74544;BME280;63016;55.030;38.710;2022-12-20T09:08:48;100624.84;;;-0.83;68.13
74544;BME280;63016;55.030;38.710;2022-12-20T09:11:15;100612.81;;;-0.81;68.70
74544;BME280;63016;55.030;38.710;2022-12-20T09:13:41;100618.63;;;-0.77;68.30
74544;BME280;63016;55.030;38.710;2022-12-20T09:16:13;100611.59;;;-0.73;68.45
74544;BME280;63016;55.030;38.710;2022-12-20T09:18:39;100601.09;;;-0.69;68.74
74544;BME280;63016;55.030;38.710;2022-12-20T09:21:05;100595.84;;;-0.66;68.38
74544;BME280;63016;55.030;38.710;2022-12-20T09:23:32;100593.88;;;-0.61;68.32
74544;BME280;63016;55.030;38.710;2022-12-20T09:26:00;100577.50;;;-0.58;68.90
74544;BME280;63016;55.030;38.710;2022-12-20T09:28:26;100584.22;;;-0.56;68.91
74544;BME280;63016;55.030;38.710;2022-12-20T09:30:52;100576.44;;;-0.54;68.63
74544;BME280;63016;55.030;38.710;2022-12-20T09:33:21;100566.03;;;-0.51;68.42
74544;BME280;63016;55.030;38.710;2022-12-20T09:35:46;100562.41;;;-0.47;68.83
74544;BME280;63016;55.030;38.710;2022-12-20T09:38:12;100556.38;;;-0.46;69.06
74544;BME280;63016;55.030;38.710;2022-12-20T09:40:38;100557.97;;;-0.43;68.29
74544;BME280;63016;55.030;38.710;2022-12-20T09:43:09;100553.50;;;-0.40;69.07
74544;BME280;63016;55.030;38.710;2022-12-20T09:45:35;100556.81;;;-0.38;69.05
74544;BME280;63016;55.030;38.710;2022-12-20T09:48:01;100534.56;;;-0.37;68.59
74544;BME280;63016;55.030;38.710;2022-12-20T09:50:47;100534.47;;;-0.36;68.10
74544;BME280;63016;55.030;38.710;2022-12-20T09:53:25;100522.56;;;-0.37;68.98
74544;BME280;63016;55.030;38.710;2022-12-20T09:55:53;100520.69;;;-0.33;68.66
74544;BME280;63016;55.030;38.710;2022-12-20T10:00:48;100517.13;;;-0.31;68.69
74544;BME280;63016;55.030;38.710;2022-12-20T10:03:28;100510.19;;;-0.29;68.75
74544;BME280;63016;55.030;38.710;2022-12-20T10:05:57;100510.91;;;-0.27;68.88
74544;BME280;63016;55.030;38.710;2022-12-20T10:10:56;100492.81;;;-0.23;68.55
74544;BME280;63016;55.030;38.710;2022-12-20T10:23:32;100454.34;;;-0.08;68.59
74544;BME280;63016;55.030;38.710;2022-12-20T10:25:58;100451.69;;;-0.06;69.18
74544;BME280;63016;55.030;38.710;2022-12-20T10:28:27;100446.41;;;-0.03;68.86
74544;BME280;63016;55.030;38.710;2022-12-20T10:30:57;100450.50;;;-0.01;68.91
74544;BME280;63016;55.030;38.710;2022-12-20T10:33:23;100444.31;;;0.04;69.19
74544;BME280;63016;55.030;38.710;2022-12-20T10:35:51;100439.84;;;0.07;69.23
74544;BME280;63016;55.030;38.710;2022-12-20T10:38:17;100433.63;;;0.11;69.38
74544;BME280;63016;55.030;38.710;2022-12-20T10:43:20;100417.06;;;0.17;69.25
74544;BME280;63016;55.030;38.710;2022-12-20T10:46:05;100417.78;;;0.19;69.04
74544;BME280;63016;55.030;38.710;2022-12-20T10:48:32;100405.63;;;0.22;68.57
74544;BME280;63016;55.030;38.710;2022-12-20T10:51:02;100393.53;;;0.24;68.76
74544;BME280;63016;55.030;38.710;2022-12-20T10:53:29;100395.91;;;0.28;69.01
74544;BME280;63016;55.030;38.710;2022-12-20T10:58:39;100379.34;;;0.33;69.19
74544;BME280;63016;55.030;38.710;2022-12-20T11:01:05;100369.81;;;0.35;69.14
74544;BME280;63016;55.030;38.710;2022-12-20T11:03:41;100381.84;;;0.35;68.69
74544;BME280;63016;55.030;38.710;2022-12-20T11:06:14;100371.47;;;0.36;68.91
74544;BME280;63016;55.030;38.710;2022-12-20T11:08:40;100369.00;;;0.35;68.44
74544;BME280;63016;55.030;38.710;2022-12-20T11:11:10;100362.84;;;0.37;68.99
74544;BME280;63016;55.030;38.710;2022-12-20T11:13:40;100355.16;;;0.37;68.76
74544;BME280;63016;55.030;38.710;2022-12-20T11:16:14;100361.09;;;0.38;68.91
74544;BME280;63016;55.030;38.710;2022-12-20T11:23:52;100350.69;;;0.41;68.48
74544;BME280;63016;55.030;38.710;2022-12-20T11:31:15;100337.19;;;0.37;68.80
74544;BME280;63016;55.030;38.710;2022-12-20T11:38:48;100327.94;;;0.35;68.78
74544;BME280;63016;55.030;38.710;2022-12-20T11:41:29;100335.81;;;0.32;67.86
74544;BME280;63016;55.030;38.710;2022-12-20T11:51:36;100326.28;;;0.19;67.74
74544;BME280;63016;55.030;38.710;2022-12-20T11:54:09;100322.22;;;0.15;67.97
74544;BME280;63016;55.030;38.710;2022-12-20T11:56:41;100318.09;;;0.13;67.86
74544;BME280;63016;55.030;38.710;2022-12-20T12:01:54;100315.88;;;0.07;68.13
74544;BME280;63016;55.030;38.710;2022-12-20T12:04:24;100307.63;;;0.02;67.81
74544;BME280;63016;55.030;38.710;2022-12-20T12:09:48;100297.78;;;-0.06;67.78
74544;BME280;63016;55.030;38.710;2022-12-20T12:17:17;100294.19;;;-0.18;67.34
74544;BME280;63016;55.030;38.710;2022-12-20T12:19:44;100291.97;;;-0.24;67.90
74544;BME280;63016;55.030;38.710;2022-12-20T12:22:15;100287.13;;;-0.29;67.50
74544;BME280;63016;55.030;38.710;2022-12-20T12:24:44;100280.50;;;-0.33;67.73
74544;BME280;63016;55.030;38.710;2022-12-20T12:27:14;100285.78;;;-0.36;67.82
74544;BME280;63016;55.030;38.710;2022-12-20T12:29:43;100280.00;;;-0.39;67.70
74544;BME280;63016;55.030;38.710;2022-12-20T12:32:12;100275.88;;;-0.42;67.98
74544;BME280;63016;55.030;38.710;2022-12-20T12:40:20;100262.75;;;-0.52;68.06
74544;BME280;63016;55.030;38.710;2022-12-20T12:45:35;100257.13;;;-0.58;67.28
74544;BME280;63016;55.030;38.710;2022-12-20T12:48:03;100251.44;;;-0.63;67.92
74544;BME280;63016;55.030;38.710;2022-12-20T12:51:03;100256.75;;;-0.66;67.95
74544;BME280;63016;55.030;38.710;2022-12-20T12:53:29;100243.38;;;-0.71;67.96
74544;BME280;63016;55.030;38.710;2022-12-20T12:55:56;100249.47;;;-0.74;68.06
74544;BME280;63016;55.030;38.710;2022-12-20T13:11:01;100241.13;;;-0.78;67.08
74544;BME280;63016;55.030;38.710;2022-12-20T13:13:27;100247.00;;;-0.75;66.17
74544;BME280;63016;55.030;38.710;2022-12-20T13:16:04;100252.50;;;-0.82;66.78
74544;BME280;63016;55.030;38.710;2022-12-20T13:18:30;100256.38;;;-0.90;66.21
74544;BME280;63016;55.030;38.710;2022-12-20T13:21:27;100255.03;;;-0.97;66.38
74544;BME280;63016;55.030;38.710;2022-12-20T13:27:15;100241.66;;;-1.18;66.48
74544;BME280;63016;55.030;38.710;2022-12-20T13:30:22;100246.28;;;-1.25;67.28
74544;BME280;63016;55.030;38.710;2022-12-20T13:40:48;100239.25;;;-1.53;66.95
74544;BME280;63016;55.030;38.710;2022-12-20T13:51:30;100249.44;;;-1.69;67.60
74544;BME280;63016;55.030;38.710;2022-12-20T13:54:04;100241.84;;;-1.70;67.75
74544;BME280;63016;55.030;38.710;2022-12-20T13:59:02;100245.53;;;-1.76;67.31
74544;BME280;63016;55.030;38.710;2022-12-20T14:01:28;100246.03;;;-1.69;67.84
74544;BME280;63016;55.030;38.710;2022-12-20T14:03:55;100247.78;;;-1.70;67.13
74544;BME280;63016;55.030;38.710;2022-12-20T14:06:23;100237.78;;;-1.74;67.59
74544;BME280;63016;55.030;38.710;2022-12-20T14:08:51;100243.97;;;-1.78;67.78
74544;BME280;63016;55.030;38.710;2022-12-20T14:11:25;100249.09;;;-1.78;67.78
74544;BME280;63016;55.030;38.710;2022-12-20T14:13:55;100258.31;;;-1.76;67.52
74544;BME280;63016;55.030;38.710;2022-12-20T14:16:23;100249.75;;;-1.75;68.19
74544;BME280;63016;55.030;38.710;2022-12-20T14:21:23;100242.16;;;-1.76;68.18
74544;BME280;63016;55.030;38.710;2022-12-20T14:23:51;100245.63;;;-1.77;68.03
74544;BME280;63016;55.030;38.710;2022-12-20T14:26:21;100237.94;;;-1.77;67.61
74544;BME280;63016;55.030;38.710;2022-12-20T14:28:50;100249.00;;;-1.77;67.82
74544;BME280;63016;55.030;38.710;2022-12-20T14:34:28;100254.84;;;-1.75;67.89
74544;BME280;63016;55.030;38.710;2022-12-20T14:42:36;100243.97;;;-1.78;67.90
74544;BME280;63016;55.030;38.710;2022-12-20T14:45:16;100244.81;;;-1.78;67.92